sensor_id;sensor_type;location;lat;lon;timestamp;P1;durP1;ratioP1;P2;durP2;ratioP2
8574;SDS011;4325;42.520;27.448;2023-12-20T00:02:00;36.47;;;22.67;;
8574;SDS011;4325;42.520;27.448;2023-12-20T00:04:28;33.67;;;21.43;;
8574;SDS011;4325;42.520;27.448;2023-12-20T00:06:55;31.63;;;20.90;;
8574;SDS011;4325;42.520;27.448;2023-12-20T00:09:22;31.53;;;21.07;;
8574;SDS011;4325;42.520;27.448;2023-12-20T00:11:49;30.83;;;20.93;;
8574;SDS011;4325;42.520;27.448;2023-12-20T00:14:17;36.27;;;21.40;;
8574;SDS011;4325;42.520;27.448;2023-12-20T00:16:45;37.07;;;21.97;;
8574;SDS011;4325;42.520;27.448;2023-12-20T00:19:12;34.93;;;22.57;;
8574;SDS011;4325;42.520;27.448;2023-12-20T00:21:39;35.27;;;22.43;;
8574;SDS011;4325;42.520;27.448;2023-12-20T00:24:06;37.33;;;22.83;;
8574;SDS011;4325;42.520;27.448;2023-12-20T00:26:33;36.27;;;22.83;;
8574;SDS011;4325;42.520;27.448;2023-12-20T00:29:00;34.93;;;21.80;;
8574;SDS011;4325;42.520;27.448;2023-12-20T00:31:29;36.67;;;22.27;;
8574;SDS011;4325;42.520;27.448;2023-12-20T00:33:56;36.93;;;22.80;;
8574;SDS011;4325;42.520;27.448;2023-12-20T00:36:23;37.93;;;23.97;;
8574;SDS011;4325;42.520;27.448;2023-12-20T00:38:50;33.33;;;22.33;;
8574;SDS011;4325;42.520;27.448;2023-12-20T00:41:18;33.93;;;22.17;;
8574;SDS011;4325;42.520;27.448;2023-12-20T00:43:45;32.33;;;22.07;;
8574;SDS011;4325;42.520;27.448;2023-12-20T00:46:12;33.20;;;21.30;;
8574;SDS011;4325;42.520;27.448;2023-12-20T00:48:40;36.47;;;23.10;;
8574;SDS011;4325;42.520;27.448;2023-12-20T00:51:10;36.10;;;23.60;;
8574;SDS011;4325;42.520;27.448;2023-12-20T00:53:40;37.77;;;22.77;;
8574;SDS011;4325;42.520;27.448;2023-12-20T00:56:08;33.47;;;22.53;;
8574;SDS011;4325;42.520;27.448;2023-12-20T00:58:35;34.23;;;23.50;;
8574;SDS011;4325;42.520;27.448;2023-12-20T01:01:02;38.13;;;24.43;;
8574;SDS011;4325;42.520;27.448;2023-12-20T01:03:29;38.07;;;23.80;;
8574;SDS011;4325;42.520;27.448;2023-12-20T01:05:58;36.90;;;24.87;;
8574;SDS011;4325;42.520;27.448;2023-12-20T01:08:25;35.77;;;23.33;;
8574;SDS011;4325;42.520;27.448;2023-12-20T01:10:52;38.93;;;24.23;;
8574;SDS011;4325;42.520;27.448;2023-12-20T01:13:19;44.07;;;25.47;;
8574;SDS011;4325;42.520;27.448;2023-12-20T01:15:46;40.47;;;25.27;;
8574;SDS011;4325;42.520;27.448;2023-12-20T01:18:13;39.23;;;23.73;;
8574;SDS011;4325;42.520;27.448;2023-12-20T01:20:40;38.50;;;24.97;;
8574;SDS011;4325;42.520;27.448;2023-12-20T01:23:09;40.23;;;25.00;;
8574;SDS011;4325;42.520;27.448;2023-12-20T01:25:36;40.40;;;25.23;;
8574;SDS011;4325;42.520;27.448;2023-12-20T01:28:03;39.63;;;24.87;;
8574;SDS011;4325;42.520;27.448;2023-12-20T01:30:31;36.00;;;23.63;;
8574;SDS011;4325;42.520;27.448;2023-12-20T01:32:59;35.60;;;24.70;;
8574;SDS011;4325;42.520;27.448;2023-12-20T01:35:26;38.57;;;23.43;;
8574;SDS011;4325;42.520;27.448;2023-12-20T01:37:53;35.97;;;23.37;;
8574;SDS011;4325;42.520;27.448;2023-12-20T01:40:23;34.73;;;22.33;;
8574;SDS011;4325;42.520;27.448;2023-12-20T01:42:57;38.83;;;23.03;;
8574;SDS011;4325;42.520;27.448;2023-12-20T01:45:25;34.80;;;23.07;;
8574;SDS011;4325;42.520;27.448;2023-12-20T01:47:52;34.17;;;22.60;;
8574;SDS011;4325;42.520;27.448;2023-12-20T01:50:20;37.53;;;22.00;;
8574;SDS011;4325;42.520;27.448;2023-12-20T01:52:48;35.10;;;22.13;;
8574;SDS011;4325;42.520;27.448;2023-12-20T01:55:17;37.83;;;24.47;;
8574;SDS011;4325;42.520;27.448;2023-12-20T01:57:46;35.13;;;23.03;;
8574;SDS011;4325;42.520;27.448;2023-12-20T02:00:13;36.80;;;22.97;;
8574;SDS011;4325;42.520;27.448;2023-12-20T02:02:41;35.73;;;22.73;;
8574;SDS011;4325;42.520;27.448;2023-12-20T02:05:09;34.90;;;21.73;;
8574;SDS011;4325;42.520;27.448;2023-12-20T02:07:37;48.80;;;22.83;;
8574;SDS011;4325;42.520;27.448;2023-12-20T02:10:04;34.20;;;21.77;;
8574;SDS011;4325;42.520;27.448;2023-12-20T02:12:32;32.67;;;22.80;;
8574;SDS011;4325;42.520;27.448;2023-12-20T02:15:00;36.37;;;22.57;;
8574;SDS011;4325;42.520;27.448;2023-12-20T02:17:27;34.20;;;22.77;;
8574;SDS011;4325;42.520;27.448;2023-12-20T02:19:56;35.60;;;23.37;;
8574;SDS011;4325;42.520;27.448;2023-12-20T02:22:24;41.07;;;24.60;;
8574;SDS011;4325;42.520;27.448;2023-12-20T02:24:51;38.70;;;22.87;;
8574;SDS011;4325;42.520;27.448;2023-12-20T02:27:18;33.53;;;21.57;;
8574;SDS011;4325;42.520;27.448;2023-12-20T02:29:47;41.70;;;26.43;;
8574;SDS011;4325;42.520;27.448;2023-12-20T02:32:14;44.30;;;27.40;;
8574;SDS011;4325;42.520;27.448;2023-12-20T02:34:42;41.43;;;27.60;;
8574;SDS011;4325;42.520;27.448;2023-12-20T02:37:09;43.77;;;26.37;;
8574;SDS011;4325;42.520;27.448;2023-12-20T02:39:38;50.70;;;27.53;;
8574;SDS011;4325;42.520;27.448;2023-12-20T02:42:05;50.57;;;28.70;;
8574;SDS011;4325;42.520;27.448;2023-12-20T02:44:32;37.00;;;24.17;;
8574;SDS011;4325;42.520;27.448;2023-12-20T02:46:59;45.17;;;26.30;;
8574;SDS011;4325;42.520;27.448;2023-12-20T02:49:26;42.33;;;25.77;;
8574;SDS011;4325;42.520;27.448;2023-12-20T02:51:53;43.00;;;25.83;;
8574;SDS011;4325;42.520;27.448;2023-12-20T02:54:20;39.63;;;25.27;;
8574;SDS011;4325;42.520;27.448;2023-12-20T02:56:49;39.60;;;23.10;;
8574;SDS011;4325;42.520;27.448;2023-12-20T02:59:16;41.30;;;26.03;;
8574;SDS011;4325;42.520;27.448;2023-12-20T03:01:43;44.30;;;26.97;;
8574;SDS011;4325;42.520;27.448;2023-12-20T03:04:11;47.10;;;28.70;;
8574;SDS011;4325;42.520;27.448;2023-12-20T03:06:38;45.33;;;28.47;;
8574;SDS011;4325;42.520;27.448;2023-12-20T03:09:05;49.07;;;28.53;;
8574;SDS011;4325;42.520;27.448;2023-12-20T03:11:32;47.33;;;27.63;;
8574;SDS011;4325;42.520;27.448;2023-12-20T03:14:01;40.77;;;26.83;;
8574;SDS011;4325;42.520;27.448;2023-12-20T03:16:28;39.83;;;26.13;;
8574;SDS011;4325;42.520;27.448;2023-12-20T03:18:56;41.83;;;26.17;;
8574;SDS011;4325;42.520;27.448;2023-12-20T03:21:23;43.30;;;25.73;;
8574;SDS011;4325;42.520;27.448;2023-12-20T03:23:50;46.83;;;25.67;;
8574;SDS011;4325;42.520;27.448;2023-12-20T03:26:17;46.00;;;26.97;;
8574;SDS011;4325;42.520;27.448;2023-12-20T03:28:44;39.47;;;25.33;;
8574;SDS011;4325;42.520;27.448;2023-12-20T03:31:13;44.93;;;27.43;;
8574;SDS011;4325;42.520;27.448;2023-12-20T03:33:40;42.27;;;24.97;;
8574;SDS011;4325;42.520;27.448;2023-12-20T03:36:07;45.90;;;25.93;;
8574;SDS011;4325;42.520;27.448;2023-12-20T03:38:34;42.20;;;26.87;;
8574;SDS011;4325;42.520;27.448;2023-12-20T03:41:01;46.67;;;27.73;;
8574;SDS011;4325;42.520;27.448;2023-12-20T03:43:28;47.47;;;27.10;;
8574;SDS011;4325;42.520;27.448;2023-12-20T03:45:56;43.80;;;27.47;;
8574;SDS011;4325;42.520;27.448;2023-12-20T03:48:25;47.57;;;27.27;;
8574;SDS011;4325;42.520;27.448;2023-12-20T03:50:52;44.57;;;27.77;;
8574;SDS011;4325;42.520;27.448;2023-12-20T03:53:19;47.33;;;27.73;;
8574;SDS011;4325;42.520;27.448;2023-12-20T03:55:46;46.50;;;27.43;;
8574;SDS011;4325;42.520;27.448;2023-12-20T03:58:13;54.33;;;29.37;;
8574;SDS011;4325;42.520;27.448;2023-12-20T04:00:40;50.60;;;28.70;;
8574;SDS011;4325;42.520;27.448;2023-12-20T04:03:07;53.37;;;31.27;;
8574;SDS011;4325;42.520;27.448;2023-12-20T04:05:36;61.17;;;35.00;;
8574;SDS011;4325;42.520;27.448;2023-12-20T04:08:03;51.37;;;31.20;;
8574;SDS011;4325;42.520;27.448;2023-12-20T04:10:30;43.60;;;28.43;;
8574;SDS011;4325;42.520;27.448;2023-12-20T04:12:58;52.37;;;31.57;;
8574;SDS011;4325;42.520;27.448;2023-12-20T04:15:25;51.20;;;30.00;;
8574;SDS011;4325;42.520;27.448;2023-12-20T04:17:52;76.83;;;32.33;;
8574;SDS011;4325;42.520;27.448;2023-12-20T04:20:19;54.93;;;31.30;;
8574;SDS011;4325;42.520;27.448;2023-12-20T04:22:47;52.40;;;31.33;;
8574;SDS011;4325;42.520;27.448;2023-12-20T04:25:14;54.83;;;31.00;;
8574;SDS011;4325;42.520;27.448;2023-12-20T04:27:41;58.67;;;31.57;;
8574;SDS011;4325;42.520;27.448;2023-12-20T04:30:08;54.87;;;31.80;;
8574;SDS011;4325;42.520;27.448;2023-12-20T04:32:36;57.87;;;32.23;;
8574;SDS011;4325;42.520;27.448;2023-12-20T04:35:03;54.03;;;30.97;;
8574;SDS011;4325;42.520;27.448;2023-12-20T04:37:31;43.73;;;27.97;;
8574;SDS011;4325;42.520;27.448;2023-12-20T04:39:59;49.53;;;30.10;;
8574;SDS011;4325;42.520;27.448;2023-12-20T04:42:26;51.00;;;30.23;;
8574;SDS011;4325;42.520;27.448;2023-12-20T04:44:53;58.70;;;34.37;;
8574;SDS011;4325;42.520;27.448;2023-12-20T04:47:21;54.33;;;32.63;;
8574;SDS011;4325;42.520;27.448;2023-12-20T04:49:48;54.03;;;32.00;;
8574;SDS011;4325;42.520;27.448;2023-12-20T04:52:15;67.17;;;33.63;;
8574;SDS011;4325;42.520;27.448;2023-12-20T04:54:42;57.83;;;36.87;;
8574;SDS011;4325;42.520;27.448;2023-12-20T04:57:10;56.87;;;36.00;;
8574;SDS011;4325;42.520;27.448;2023-12-20T04:59:37;61.70;;;37.37;;
8574;SDS011;4325;42.520;27.448;2023-12-20T05:02:04;51.90;;;29.70;;
8574;SDS011;4325;42.520;27.448;2023-12-20T05:04:31;47.20;;;29.60;;
8574;SDS011;4325;42.520;27.448;2023-12-20T05:06:58;46.73;;;26.87;;
8574;SDS011;4325;42.520;27.448;2023-12-20T05:09:25;47.70;;;27.50;;
8574;SDS011;4325;42.520;27.448;2023-12-20T05:11:52;46.07;;;24.90;;
8574;SDS011;4325;42.520;27.448;2023-12-20T05:14:21;39.27;;;23.43;;
8574;SDS011;4325;42.520;27.448;2023-12-20T05:16:48;39.83;;;23.10;;
8574;SDS011;4325;42.520;27.448;2023-12-20T05:19:15;48.03;;;27.00;;
8574;SDS011;4325;42.520;27.448;2023-12-20T05:21:42;55.43;;;28.33;;
8574;SDS011;4325;42.520;27.448;2023-12-20T05:24:09;42.93;;;25.47;;
8574;SDS011;4325;42.520;27.448;2023-12-20T05:26:36;45.73;;;26.20;;
8574;SDS011;4325;42.520;27.448;2023-12-20T05:29:03;56.53;;;29.97;;
8574;SDS011;4325;42.520;27.448;2023-12-20T05:31:32;49.77;;;29.10;;
8574;SDS011;4325;42.520;27.448;2023-12-20T05:33:59;44.40;;;27.03;;
8574;SDS011;4325;42.520;27.448;2023-12-20T05:36:26;49.80;;;28.50;;
8574;SDS011;4325;42.520;27.448;2023-12-20T05:38:53;49.87;;;30.60;;
8574;SDS011;4325;42.520;27.448;2023-12-20T05:41:20;57.13;;;30.97;;
8574;SDS011;4325;42.520;27.448;2023-12-20T05:43:48;49.40;;;29.73;;
8574;SDS011;4325;42.520;27.448;2023-12-20T05:46:15;44.83;;;28.13;;
8574;SDS011;4325;42.520;27.448;2023-12-20T05:48:43;45.97;;;26.23;;
8574;SDS011;4325;42.520;27.448;2023-12-20T05:51:11;43.73;;;25.97;;
8574;SDS011;4325;42.520;27.448;2023-12-20T05:53:39;57.07;;;28.50;;
8574;SDS011;4325;42.520;27.448;2023-12-20T05:56:06;58.83;;;31.43;;
8574;SDS011;4325;42.520;27.448;2023-12-20T05:58:33;51.70;;;29.50;;
8574;SDS011;4325;42.520;27.448;2023-12-20T06:01:00;54.30;;;30.93;;
8574;SDS011;4325;42.520;27.448;2023-12-20T06:03:27;53.87;;;29.03;;
8574;SDS011;4325;42.520;27.448;2023-12-20T06:05:56;50.77;;;29.03;;
8574;SDS011;4325;42.520;27.448;2023-12-20T06:08:23;52.67;;;30.73;;
8574;SDS011;4325;42.520;27.448;2023-12-20T06:10:50;47.37;;;28.20;;
8574;SDS011;4325;42.520;27.448;2023-12-20T06:13:17;44.87;;;27.03;;
8574;SDS011;4325;42.520;27.448;2023-12-20T06:15:44;43.63;;;26.10;;
8574;SDS011;4325;42.520;27.448;2023-12-20T06:18:11;37.00;;;24.17;;
8574;SDS011;4325;42.520;27.448;2023-12-20T06:20:38;39.57;;;23.43;;
8574;SDS011;4325;42.520;27.448;2023-12-20T06:23:06;32.87;;;20.87;;
8574;SDS011;4325;42.520;27.448;2023-12-20T06:25:33;37.23;;;22.07;;
8574;SDS011;4325;42.520;27.448;2023-12-20T06:28:00;33.93;;;21.33;;
8574;SDS011;4325;42.520;27.448;2023-12-20T06:30:30;28.73;;;18.87;;
8574;SDS011;4325;42.520;27.448;2023-12-20T06:33:00;28.43;;;18.70;;
8574;SDS011;4325;42.520;27.448;2023-12-20T06:35:27;28.87;;;17.43;;
8574;SDS011;4325;42.520;27.448;2023-12-20T06:37:54;29.70;;;17.60;;
8574;SDS011;4325;42.520;27.448;2023-12-20T06:40:23;32.77;;;18.80;;
8574;SDS011;4325;42.520;27.448;2023-12-20T06:42:50;27.67;;;17.67;;
8574;SDS011;4325;42.520;27.448;2023-12-20T06:45:17;28.93;;;17.17;;
8574;SDS011;4325;42.520;27.448;2023-12-20T06:47:44;25.63;;;17.53;;
8574;SDS011;4325;42.520;27.448;2023-12-20T06:50:11;24.43;;;17.40;;
8574;SDS011;4325;42.520;27.448;2023-12-20T06:52:38;24.07;;;15.93;;
8574;SDS011;4325;42.520;27.448;2023-12-20T06:55:05;23.67;;;15.67;;
8574;SDS011;4325;42.520;27.448;2023-12-20T06:57:34;25.40;;;15.80;;
8574;SDS011;4325;42.520;27.448;2023-12-20T07:00:01;22.10;;;15.50;;
8574;SDS011;4325;42.520;27.448;2023-12-20T07:02:29;24.27;;;14.83;;
8574;SDS011;4325;42.520;27.448;2023-12-20T07:04:56;22.80;;;15.47;;
8574;SDS011;4325;42.520;27.448;2023-12-20T07:07:24;21.63;;;15.43;;
8574;SDS011;4325;42.520;27.448;2023-12-20T07:09:51;21.00;;;15.23;;
8574;SDS011;4325;42.520;27.448;2023-12-20T07:12:18;24.63;;;16.10;;
8574;SDS011;4325;42.520;27.448;2023-12-20T07:14:47;24.20;;;16.70;;
8574;SDS011;4325;42.520;27.448;2023-12-20T07:17:14;23.27;;;16.57;;
8574;SDS011;4325;42.520;27.448;2023-12-20T07:19:41;23.90;;;17.20;;
8574;SDS011;4325;42.520;27.448;2023-12-20T07:22:08;23.03;;;16.37;;
8574;SDS011;4325;42.520;27.448;2023-12-20T07:24:35;23.73;;;17.43;;
8574;SDS011;4325;42.520;27.448;2023-12-20T07:27:03;22.20;;;16.20;;
8574;SDS011;4325;42.520;27.448;2023-12-20T07:29:30;21.33;;;15.70;;
8574;SDS011;4325;42.520;27.448;2023-12-20T07:31:59;21.27;;;16.00;;
8574;SDS011;4325;42.520;27.448;2023-12-20T07:34:26;20.67;;;15.37;;
8574;SDS011;4325;42.520;27.448;2023-12-20T07:36:53;21.97;;;16.33;;
8574;SDS011;4325;42.520;27.448;2023-12-20T07:39:20;21.40;;;16.87;;
8574;SDS011;4325;42.520;27.448;2023-12-20T07:41:49;26.80;;;16.97;;
8574;SDS011;4325;42.520;27.448;2023-12-20T07:44:16;21.63;;;16.03;;
8574;SDS011;4325;42.520;27.448;2023-12-20T07:46:43;19.80;;;16.43;;
8574;SDS011;4325;42.520;27.448;2023-12-20T07:49:11;22.83;;;16.37;;
8574;SDS011;4325;42.520;27.448;2023-12-20T07:51:38;21.37;;;15.43;;
8574;SDS011;4325;42.520;27.448;2023-12-20T07:54:05;24.20;;;16.03;;
8574;SDS011;4325;42.520;27.448;2023-12-20T07:56:33;22.47;;;15.83;;
8574;SDS011;4325;42.520;27.448;2023-12-20T07:59:00;25.30;;;16.40;;
8574;SDS011;4325;42.520;27.448;2023-12-20T08:01:27;25.20;;;18.43;;
8574;SDS011;4325;42.520;27.448;2023-12-20T08:03:56;22.63;;;15.67;;
8574;SDS011;4325;42.520;27.448;2023-12-20T08:06:25;22.50;;;16.57;;
8574;SDS011;4325;42.520;27.448;2023-12-20T08:08:52;22.33;;;16.23;;
8574;SDS011;4325;42.520;27.448;2023-12-20T08:11:19;19.97;;;15.20;;
8574;SDS011;4325;42.520;27.448;2023-12-20T08:13:46;22.53;;;15.17;;
8574;SDS011;4325;42.520;27.448;2023-12-20T08:16:13;16.70;;;14.63;;
8574;SDS011;4325;42.520;27.448;2023-12-20T08:18:42;17.43;;;15.57;;
8574;SDS011;4325;42.520;27.448;2023-12-20T08:21:09;20.83;;;15.63;;
8574;SDS011;4325;42.520;27.448;2023-12-20T08:23:38;17.07;;;14.87;;
8574;SDS011;4325;42.520;27.448;2023-12-20T08:26:05;19.33;;;14.57;;
8574;SDS011;4325;42.520;27.448;2023-12-20T08:28:32;19.57;;;16.00;;
8574;SDS011;4325;42.520;27.448;2023-12-20T08:30:59;18.00;;;14.50;;
8574;SDS011;4325;42.520;27.448;2023-12-20T08:33:26;19.60;;;13.57;;
8574;SDS011;4325;42.520;27.448;2023-12-20T08:35:53;16.63;;;14.63;;
8574;SDS011;4325;42.520;27.448;2023-12-20T08:38:20;21.00;;;13.67;;
8574;SDS011;4325;42.520;27.448;2023-12-20T08:40:49;18.83;;;15.00;;
8574;SDS011;4325;42.520;27.448;2023-12-20T08:43:16;19.97;;;14.03;;
8574;SDS011;4325;42.520;27.448;2023-12-20T08:45:43;17.20;;;14.17;;
8574;SDS011;4325;42.520;27.448;2023-12-20T08:48:10;18.67;;;13.70;;
8574;SDS011;4325;42.520;27.448;2023-12-20T08:50:37;18.53;;;13.20;;
8574;SDS011;4325;42.520;27.448;2023-12-20T08:53:05;19.03;;;13.70;;
8574;SDS011;4325;42.520;27.448;2023-12-20T08:55:32;16.07;;;12.43;;
8574;SDS011;4325;42.520;27.448;2023-12-20T08:58:00;16.87;;;13.33;;
8574;SDS011;4325;42.520;27.448;2023-12-20T09:00:27;15.97;;;12.87;;
8574;SDS011;4325;42.520;27.448;2023-12-20T09:02:55;16.33;;;13.07;;
8574;SDS011;4325;42.520;27.448;2023-12-20T09:05:22;14.70;;;12.60;;
8574;SDS011;4325;42.520;27.448;2023-12-20T09:07:49;14.07;;;12.33;;
8574;SDS011;4325;42.520;27.448;2023-12-20T09:10:16;13.53;;;11.90;;
8574;SDS011;4325;42.520;27.448;2023-12-20T09:12:47;16.27;;;12.33;;
8574;SDS011;4325;42.520;27.448;2023-12-20T09:15:15;16.00;;;11.77;;
8574;SDS011;4325;42.520;27.448;2023-12-20T09:17:42;20.57;;;12.80;;
8574;SDS011;4325;42.520;27.448;2023-12-20T09:20:10;15.27;;;12.30;;
8574;SDS011;4325;42.520;27.448;2023-12-20T09:22:38;16.43;;;13.33;;
8574;SDS011;4325;42.520;27.448;2023-12-20T09:25:07;17.00;;;12.63;;
8574;SDS011;4325;42.520;27.448;2023-12-20T09:27:35;13.97;;;12.20;;
8574;SDS011;4325;42.520;27.448;2023-12-20T09:30:03;15.27;;;12.33;;
8574;SDS011;4325;42.520;27.448;2023-12-20T09:32:32;13.30;;;11.90;;
8574;SDS011;4325;42.520;27.448;2023-12-20T09:34:59;14.87;;;11.47;;
8574;SDS011;4325;42.520;27.448;2023-12-20T09:37:27;14.60;;;12.17;;
8574;SDS011;4325;42.520;27.448;2023-12-20T09:39:54;16.10;;;11.93;;
8574;SDS011;4325;42.520;27.448;2023-12-20T09:42:23;17.33;;;12.90;;
8574;SDS011;4325;42.520;27.448;2023-12-20T09:44:55;15.00;;;12.80;;
8574;SDS011;4325;42.520;27.448;2023-12-20T09:47:28;16.93;;;11.70;;
8574;SDS011;4325;42.520;27.448;2023-12-20T09:49:57;18.40;;;12.80;;
8574;SDS011;4325;42.520;27.448;2023-12-20T09:52:24;15.73;;;11.00;;
8574;SDS011;4325;42.520;27.448;2023-12-20T09:54:51;20.03;;;13.20;;
8574;SDS011;4325;42.520;27.448;2023-12-20T09:57:20;13.80;;;11.57;;
8574;SDS011;4325;42.520;27.448;2023-12-20T09:59:47;13.97;;;12.47;;
8574;SDS011;4325;42.520;27.448;2023-12-20T10:02:14;15.57;;;12.97;;
8574;SDS011;4325;42.520;27.448;2023-12-20T10:04:46;17.17;;;12.70;;
8574;SDS011;4325;42.520;27.448;2023-12-20T10:07:15;13.40;;;11.65;;
8574;SDS011;4325;42.520;27.448;2023-12-20T10:09:42;21.98;;;16.25;;
8574;SDS011;4325;42.520;27.448;2023-12-20T10:12:11;13.67;;;12.23;;
8574;SDS011;4325;42.520;27.448;2023-12-20T10:14:38;20.73;;;10.90;;
8574;SDS011;4325;42.520;27.448;2023-12-20T10:17:06;17.53;;;11.67;;
8574;SDS011;4325;42.520;27.448;2023-12-20T10:19:51;17.50;;;11.17;;
8574;SDS011;4325;42.520;27.448;2023-12-20T10:22:20;17.07;;;11.50;;
8574;SDS011;4325;42.520;27.448;2023-12-20T10:24:48;12.90;;;10.90;;
8574;SDS011;4325;42.520;27.448;2023-12-20T10:27:15;14.57;;;10.85;;
8574;SDS011;4325;42.520;27.448;2023-12-20T10:29:45;12.60;;;9.63;;
8574;SDS011;4325;42.520;27.448;2023-12-20T10:32:22;20.00;;;10.88;;
8574;SDS011;4325;42.520;27.448;2023-12-20T10:34:50;23.60;;;11.15;;
8574;SDS011;4325;42.520;27.448;2023-12-20T10:37:17;13.60;;;10.48;;
8574;SDS011;4325;42.520;27.448;2023-12-20T10:39:45;12.48;;;10.65;;
8574;SDS011;4325;42.520;27.448;2023-12-20T10:42:18;10.73;;;9.32;;
8574;SDS011;4325;42.520;27.448;2023-12-20T10:44:48;13.52;;;10.43;;
8574;SDS011;4325;42.520;27.448;2023-12-20T10:47:15;17.67;;;10.30;;
8574;SDS011;4325;42.520;27.448;2023-12-20T10:49:43;14.35;;;10.15;;
8574;SDS011;4325;42.520;27.448;2023-12-20T10:52:12;11.25;;;10.05;;
8574;SDS011;4325;42.520;27.448;2023-12-20T10:54:39;17.35;;;10.75;;
8574;SDS011;4325;42.520;27.448;2023-12-20T10:57:08;13.43;;;10.53;;
8574;SDS011;4325;42.520;27.448;2023-12-20T10:59:37;12.83;;;9.70;;
8574;SDS011;4325;42.520;27.448;2023-12-20T11:02:06;11.20;;;10.00;;
8574;SDS011;4325;42.520;27.448;2023-12-20T11:04:35;13.75;;;10.40;;
8574;SDS011;4325;42.520;27.448;2023-12-20T11:07:10;12.80;;;9.05;;
8574;SDS011;4325;42.520;27.448;2023-12-20T11:09:49;10.57;;;9.48;;
8574;SDS011;4325;42.520;27.448;2023-12-20T11:12:28;12.85;;;8.55;;
8574;SDS011;4325;42.520;27.448;2023-12-20T11:15:05;9.45;;;8.55;;
8574;SDS011;4325;42.520;27.448;2023-12-20T11:17:34;9.02;;;8.05;;
8574;SDS011;4325;42.520;27.448;2023-12-20T11:20:05;9.80;;;8.35;;
8574;SDS011;4325;42.520;27.448;2023-12-20T11:22:35;12.10;;;7.97;;
8574;SDS011;4325;42.520;27.448;2023-12-20T11:25:04;9.80;;;7.85;;
8574;SDS011;4325;42.520;27.448;2023-12-20T11:27:35;9.48;;;7.95;;
8574;SDS011;4325;42.520;27.448;2023-12-20T11:30:03;9.32;;;7.38;;
8574;SDS011;4325;42.520;27.448;2023-12-20T11:32:33;11.18;;;7.22;;
8574;SDS011;4325;42.520;27.448;2023-12-20T11:35:01;11.23;;;7.70;;
8574;SDS011;4325;42.520;27.448;2023-12-20T11:37:44;8.02;;;6.78;;
8574;SDS011;4325;42.520;27.448;2023-12-20T11:40:13;16.15;;;8.10;;
8574;SDS011;4325;42.520;27.448;2023-12-20T11:42:44;11.57;;;6.78;;
8574;SDS011;4325;42.520;27.448;2023-12-20T11:45:13;7.90;;;7.13;;
8574;SDS011;4325;42.520;27.448;2023-12-20T11:47:42;13.93;;;8.53;;
8574;SDS011;4325;42.520;27.448;2023-12-20T11:50:10;13.00;;;9.10;;
8574;SDS011;4325;42.520;27.448;2023-12-20T11:52:37;11.67;;;8.40;;
8574;SDS011;4325;42.520;27.448;2023-12-20T11:55:05;9.70;;;7.87;;
8574;SDS011;4325;42.520;27.448;2023-12-20T11:57:33;16.57;;;8.70;;
8574;SDS011;4325;42.520;27.448;2023-12-20T12:00:02;14.17;;;8.90;;
8574;SDS011;4325;42.520;27.448;2023-12-20T12:02:29;15.07;;;9.27;;
8574;SDS011;4325;42.520;27.448;2023-12-20T12:04:57;20.27;;;11.60;;
8574;SDS011;4325;42.520;27.448;2023-12-20T12:07:25;14.53;;;10.77;;
8574;SDS011;4325;42.520;27.448;2023-12-20T12:09:52;15.33;;;8.97;;
8574;SDS011;4325;42.520;27.448;2023-12-20T12:12:19;15.03;;;9.33;;
8574;SDS011;4325;42.520;27.448;2023-12-20T12:14:47;11.10;;;7.93;;
8574;SDS011;4325;42.520;27.448;2023-12-20T12:17:17;10.33;;;8.33;;
8574;SDS011;4325;42.520;27.448;2023-12-20T12:19:44;12.53;;;8.43;;
8574;SDS011;4325;42.520;27.448;2023-12-20T12:22:12;14.50;;;9.03;;
8574;SDS011;4325;42.520;27.448;2023-12-20T12:24:41;12.47;;;9.43;;
8574;SDS011;4325;42.520;27.448;2023-12-20T12:27:08;12.87;;;9.43;;
8574;SDS011;4325;42.520;27.448;2023-12-20T12:29:36;12.70;;;8.17;;
8574;SDS011;4325;42.520;27.448;2023-12-20T12:32:04;12.57;;;8.60;;
8574;SDS011;4325;42.520;27.448;2023-12-20T12:34:34;14.13;;;8.37;;
8574;SDS011;4325;42.520;27.448;2023-12-20T12:37:01;7.63;;;6.93;;
8574;SDS011;4325;42.520;27.448;2023-12-20T12:39:30;14.10;;;7.60;;
8574;SDS011;4325;42.520;27.448;2023-12-20T12:41:57;11.73;;;8.03;;
8574;SDS011;4325;42.520;27.448;2023-12-20T12:44:24;15.87;;;9.27;;
8574;SDS011;4325;42.520;27.448;2023-12-20T12:46:51;21.27;;;10.07;;
8574;SDS011;4325;42.520;27.448;2023-12-20T12:49:19;11.00;;;8.77;;
8574;SDS011;4325;42.520;27.448;2023-12-20T12:51:47;12.47;;;8.57;;
8574;SDS011;4325;42.520;27.448;2023-12-20T12:54:15;13.33;;;8.70;;
8574;SDS011;4325;42.520;27.448;2023-12-20T12:56:43;11.70;;;8.87;;
8574;SDS011;4325;42.520;27.448;2023-12-20T12:59:12;10.30;;;8.40;;
8574;SDS011;4325;42.520;27.448;2023-12-20T13:01:38;14.33;;;8.43;;
8574;SDS011;4325;42.520;27.448;2023-12-20T13:04:08;11.50;;;7.73;;
8574;SDS011;4325;42.520;27.448;2023-12-20T13:06:36;16.70;;;7.30;;
8574;SDS011;4325;42.520;27.448;2023-12-20T13:09:05;9.90;;;7.93;;
8574;SDS011;4325;42.520;27.448;2023-12-20T13:11:34;11.73;;;7.53;;
8574;SDS011;4325;42.520;27.448;2023-12-20T13:14:01;9.87;;;7.17;;
8574;SDS011;4325;42.520;27.448;2023-12-20T13:16:29;12.83;;;8.20;;
8574;SDS011;4325;42.520;27.448;2023-12-20T13:18:56;13.67;;;8.83;;
8574;SDS011;4325;42.520;27.448;2023-12-20T13:21:25;11.40;;;7.83;;
8574;SDS011;4325;42.520;27.448;2023-12-20T13:23:52;11.93;;;8.67;;
8574;SDS011;4325;42.520;27.448;2023-12-20T13:26:21;19.90;;;8.83;;
8574;SDS011;4325;42.520;27.448;2023-12-20T13:28:48;11.37;;;8.07;;
8574;SDS011;4325;42.520;27.448;2023-12-20T13:31:15;14.37;;;8.03;;
8574;SDS011;4325;42.520;27.448;2023-12-20T13:33:42;14.17;;;8.47;;
8574;SDS011;4325;42.520;27.448;2023-12-20T13:36:09;14.60;;;7.73;;
8574;SDS011;4325;42.520;27.448;2023-12-20T13:38:36;11.60;;;7.63;;
8574;SDS011;4325;42.520;27.448;2023-12-20T13:41:03;15.97;;;7.43;;
8574;SDS011;4325;42.520;27.448;2023-12-20T13:43:32;13.30;;;6.47;;
8574;SDS011;4325;42.520;27.448;2023-12-20T13:46:01;7.23;;;6.53;;
8574;SDS011;4325;42.520;27.448;2023-12-20T13:48:28;14.10;;;7.23;;
8574;SDS011;4325;42.520;27.448;2023-12-20T13:50:55;10.60;;;6.23;;
8574;SDS011;4325;42.520;27.448;2023-12-20T13:53:23;13.03;;;6.73;;
8574;SDS011;4325;42.520;27.448;2023-12-20T13:55:50;16.10;;;7.83;;
8574;SDS011;4325;42.520;27.448;2023-12-20T13:58:17;12.83;;;6.83;;
8574;SDS011;4325;42.520;27.448;2023-12-20T14:00:46;11.73;;;7.27;;
8574;SDS011;4325;42.520;27.448;2023-12-20T14:03:13;17.37;;;8.30;;
8574;SDS011;4325;42.520;27.448;2023-12-20T14:05:40;18.67;;;11.57;;
8574;SDS011;4325;42.520;27.448;2023-12-20T14:08:08;22.70;;;9.10;;
8574;SDS011;4325;42.520;27.448;2023-12-20T14:10:35;14.73;;;8.87;;
8574;SDS011;4325;42.520;27.448;2023-12-20T14:13:03;22.17;;;9.10;;
8574;SDS011;4325;42.520;27.448;2023-12-20T14:15:31;14.53;;;9.53;;
8574;SDS011;4325;42.520;27.448;2023-12-20T14:18:04;22.00;;;11.37;;
8574;SDS011;4325;42.520;27.448;2023-12-20T14:20:33;21.90;;;9.67;;
8574;SDS011;4325;42.520;27.448;2023-12-20T14:23:00;19.23;;;10.07;;
8574;SDS011;4325;42.520;27.448;2023-12-20T14:25:27;22.60;;;9.60;;
8574;SDS011;4325;42.520;27.448;2023-12-20T14:27:54;21.77;;;10.80;;
8574;SDS011;4325;42.520;27.448;2023-12-20T14:30:22;25.97;;;10.80;;
8574;SDS011;4325;42.520;27.448;2023-12-20T14:32:49;22.47;;;10.43;;
8574;SDS011;4325;42.520;27.448;2023-12-20T14:35:18;40.20;;;12.77;;
8574;SDS011;4325;42.520;27.448;2023-12-20T14:37:46;25.27;;;12.57;;
8574;SDS011;4325;42.520;27.448;2023-12-20T14:40:13;23.40;;;13.70;;
8574;SDS011;4325;42.520;27.448;2023-12-20T14:42:41;39.40;;;18.43;;